Time;durP1;ratioP1;P1;durP2;ratioP2;P2;SDS_P1;SDS_P2;PMS_P1;PMS_P2;Temp;Humidity;BMP_temperature;BMP_pressure;BME280_temperature;BME280_humidity;BME280_pressure;Samples;Min_cycle;Max_cycle;Signal;HPM_P1;HPM_P2
2022/06/11 00:00:05;;;;;;;16.80;13.18;;;;;;;30.04;51.98;100762.66;5062072;28;65226;-38
2022/06/11 00:02:37;;;;;;;26.40;11.75;;;;;;;30.14;51.82;100757.56;5052052;28;69983;-38
2022/06/11 00:05:08;;;;;;;23.10;15.00;;;;;;;30.16;55.15;100738.44;5052029;28;65820;-40
2022/06/11 00:07:39;;;;;;;27.33;18.33;;;;;;;30.34;60.12;100756.63;5058653;28;69772;-41
2022/06/11 00:10:11;;;;;;;53.95;20.23;;;;;;;30.45;62.32;100766.75;5053952;27;65842;-39
2022/06/11 00:12:42;;;;;;;34.85;21.30;;;;;;;30.53;64.02;100769.19;5050366;28;70953;-40
2022/06/11 00:15:13;;;;;;;34.58;21.55;;;;;;;30.63;64.37;100769.53;5057502;28;66506;-39
2022/06/11 00:17:47;;;;;;;37.90;21.70;;;;;;;30.71;63.57;100774.66;5046795;28;69834;-43
2022/06/11 00:20:19;;;;;;;46.15;22.52;;;;;;;30.78;65.34;100779.19;5050329;28;66016;-39
2022/06/11 00:22:51;;;;;;;36.10;21.88;;;;;;;30.76;66.54;100771.28;5055983;28;69486;-41
2022/06/11 00:25:23;;;;;;;33.33;22.55;;;;;;;30.88;66.88;100784.97;5060921;28;65591;-40
2022/06/11 00:27:54;;;;;;;30.37;23.67;;;;;;;30.86;66.61;100765.38;5049058;28;69979;-40
2022/06/11 00:30:25;;;;;;;49.15;25.77;;;;;;;30.93;67.17;100785.13;5047562;28;67581;-40
2022/06/11 00:32:56;;;;;;;37.78;23.25;;;;;;;30.98;67.39;100779.03;5042654;28;70597;-40
2022/06/11 00:35:29;;;;;;;33.15;23.33;;;;;;;31.05;67.98;100779.81;5041559;28;66226;-38
2022/06/11 00:38:00;;;;;;;43.13;22.55;;;;;;;31.07;66.76;100789.38;5054398;28;69917;-40
2022/06/11 00:40:34;;;;;;;35.27;21.63;;;;;;;31.09;67.10;100789.97;5023942;28;64771;-40
2022/06/11 00:43:06;;;;;;;37.67;22.27;;;;;;;31.05;67.74;100783.34;5054579;28;69913;-40
2022/06/11 00:46:20;;;;;;;30.17;20.35;;;;;;;31.05;67.38;100794.16;5042380;28;65418;-40
2022/06/11 00:48:51;;;;;;;42.55;20.17;;;;;;;31.26;65.69;100802.91;5050555;28;69431;-38
2022/06/11 00:51:24;;;;;;;21.00;17.23;;;;;;;30.96;63.29;100733.22;5047691;28;66132;-39
2022/06/11 00:54:08;;;;;;;23.30;17.20;;;;;;;31.42;63.04;100802.34;5061896;28;69226;-38
2022/06/11 00:56:44;;;;;;;21.13;16.17;;;;;;;31.45;61.91;100790.22;5045013;28;66783;-38
2022/06/11 00:59:19;;;;;;;19.75;16.98;;;;;;;31.63;61.54;100797.53;5041910;28;70744;-38
2022/06/11 01:01:56;;;;;;;24.98;16.52;;;;;;;31.67;61.30;100798.72;5060828;28;64867;-37
2022/06/11 01:04:43;;;;;;;20.65;16.00;;;;;;;31.69;62.03;100807.47;5055454;28;70214;-40
2022/06/11 01:07:32;;;;;;;22.90;16.15;;;;;;;31.77;60.77;100810.69;5054311;28;65756;-39
2022/06/11 01:10:03;;;;;;;21.50;15.88;;;;;;;31.81;60.16;100811.06;5061787;28;70168;-39
2022/06/11 01:13:01;;;;;;;17.25;15.32;;;;;;;31.78;61.01;100816.94;5054847;27;66651;-39
2022/06/11 01:15:53;;;;;;;20.45;15.02;;;;;;;31.49;60.32;100765.16;5048939;28;70708;-38
2022/06/11 01:18:40;;;;;;;15.45;13.75;;;;;;;31.95;60.16;100823.41;5043134;28;66015;-39
2022/06/11 01:21:44;;;;;;;17.95;14.40;;;;;;;31.88;60.41;100819.94;5047755;28;69581;-38
2022/06/11 01:24:52;;;;;;;19.30;14.82;;;;;;;31.92;59.95;100829.31;5049300;28;66505;-38
2022/06/11 01:28:07;;;;;;;15.90;14.25;;;;;;;31.91;60.14;100833.09;5030371;28;70092;-38
2022/06/11 01:31:03;;;;;;;18.83;14.85;;;;;;;31.84;59.67;100799.75;5040914;28;66320;-39
2022/06/11 01:34:06;;;;;;;15.25;13.80;;;;;;;32.05;59.47;100831.84;5046662;28;70269;-38
2022/06/11 01:36:43;;;;;;;15.05;13.50;;;;;;;32.17;58.91;100845.44;5044241;28;66343;-39
2022/06/11 01:39:20;;;;;;;15.63;14.00;;;;;;;32.21;58.64;100832.28;5041888;28;69521;-39
2022/06/11 01:42:19;;;;;;;17.25;14.00;;;;;;;32.19;59.06;100831.66;5048590;28;66481;-39
2022/06/11 01:45:20;;;;;;;17.02;14.40;;;;;;;32.04;58.57;100794.94;5055456;27;71750;-38
2022/06/11 01:47:52;;;;;;;16.83;14.10;;;;;;;32.30;58.20;100820.03;5036437;28;65157;-37
2022/06/11 01:50:26;;;;;;;16.88;14.82;;;;;;;32.32;58.22;100817.06;5050864;28;70189;-37
2022/06/11 01:53:34;;;;;;;17.17;14.52;;;;;;;32.25;58.59;100818.00;5039516;28;66320;-38
2022/06/11 01:56:10;;;;;;;15.50;13.82;;;;;;;32.37;58.04;100819.91;5051547;28;69391;-38
2022/06/11 01:58:53;;;;;;;16.50;14.68;;;;;;;32.34;57.97;100815.78;5029901;28;65200;-38
2022/06/11 02:01:37;;;;;;;15.88;14.20;;;;;;;32.38;57.99;100819.69;5052324;28;70535;-38
2022/06/11 02:04:26;;;;;;;15.10;13.52;;;;;;;32.38;57.71;100805.31;5053215;28;66558;-38
2022/06/11 02:07:06;;;;;;;16.00;14.38;;;;;;;32.50;57.61;100803.44;5051407;28;69443;-38
2022/06/11 02:10:03;;;;;;;14.77;13.15;;;;;;;32.42;57.56;100791.00;5051845;28;65378;-39
2022/06/11 02:12:52;;;;;;;15.55;13.95;;;;;;;32.28;57.33;100759.69;5041438;28;71002;-37
2022/06/11 02:15:26;;;;;;;16.25;14.45;;;;;;;32.60;56.92;100797.47;5051353;28;65706;-38
2022/06/11 02:18:02;;;;;;;15.00;13.60;;;;;;;32.33;56.84;100738.13;5050499;28;69475;-39
2022/06/11 02:20:41;;;;;;;15.07;13.77;;;;;;;32.34;56.77;100745.19;5048229;28;65814;-38
2022/06/11 02:23:44;;;;;;;14.40;13.20;;;;;;;32.63;56.84;100797.00;5043506;28;70107;-38
2022/06/11 02:26:29;;;;;;;14.73;13.27;;;;;;;32.68;56.61;100789.78;5042825;28;66884;-37
2022/06/11 02:29:01;;;;;;;17.60;14.00;;;;;;;32.75;56.33;100784.25;5045269;28;70093;-37
2022/06/11 02:31:39;;;;;;;17.08;14.25;;;;;;;32.77;56.25;100792.16;5046524;28;65723;-38
2022/06/11 02:34:10;;;;;;;14.90;13.40;;;;;;;32.80;56.28;100778.94;5053008;28;69824;-38
2022/06/11 02:36:52;;;;;;;15.02;13.35;;;;;;;32.80;56.29;100776.22;5051393;27;66874;-38
2022/06/11 02:39:25;;;;;;;17.30;13.70;;;;;;;32.87;56.02;100770.66;5046379;28;70445;-39
2022/06/11 02:41:57;;;;;;;15.80;13.88;;;;;;;32.80;55.95;100749.03;5060103;28;67093;-38
2022/06/11 02:44:27;;;;;;;;;;;;;;;32.57;56.86;100766.16;5054252;28;70380;-37
2022/06/11 02:46:58;;;;;;;13.77;12.48;;;;;;;32.90;55.80;100760.16;5061602;28;66578;-38
2022/06/11 02:49:33;;;;;;;15.02;12.70;;;;;;;32.98;55.37;100769.00;5052812;28;69151;-38
2022/06/11 02:52:14;;;;;;;13.63;12.60;;;;;;;33.01;55.15;100771.25;5053310;28;65706;-39
2022/06/11 02:54:45;;;;;;;14.23;12.88;;;;;;;33.03;55.35;100763.72;5047906;28;69975;-37
2022/06/11 02:57:21;;;;;;;14.43;13.27;;;;;;;32.99;55.42;100748.91;5052195;28;66499;-38
2022/06/11 02:59:53;;;;;;;15.18;13.70;;;;;;;33.06;54.98;100752.38;5048526;28;69446;-38
2022/06/11 03:02:24;;;;;;;;;;;;;;;32.77;55.78;100749.53;5052789;28;65982;-38
2022/06/11 03:04:56;;;;;;;14.20;12.95;;;;;;;33.09;55.28;100746.44;5047985;28;70121;-38
2022/06/11 03:07:27;;;;;;;15.02;13.63;;;;;;;33.13;54.98;100753.06;5053497;28;65176;-38
2022/06/11 03:09:57;;;;;;;14.90;13.60;;;;;;;33.20;54.83;100747.50;5055762;28;69549;-38
2022/06/11 03:12:28;;;;;;;16.52;13.45;;;;;;;33.21;54.87;100739.13;5048978;28;66704;-39
2022/06/11 03:14:59;;;;;;;14.85;13.23;;;;;;;33.25;54.81;100734.84;5053344;28;69192;-38
2022/06/11 03:17:30;;;;;;;14.93;13.02;;;;;;;33.28;54.90;100737.06;5051424;28;66561;-38
2022/06/11 03:20:00;;;;;;;15.63;14.13;;;;;;;33.23;54.55;100723.38;5052584;28;69843;-38
2022/06/11 03:22:31;;;;;;;15.98;14.73;;;;;;;33.30;54.75;100732.22;5054212;28;65893;-38
2022/06/11 03:25:04;;;;;;;18.58;16.80;;;;;;;33.31;54.77;100728.44;5045382;28;70080;-39
2022/06/11 03:27:38;;;;;;;17.70;15.65;;;;;;;33.34;54.62;100722.50;5057862;28;66355;-42
2022/06/11 03:30:10;;;;;;;17.75;15.80;;;;;;;33.34;54.91;100711.63;5054569;28;69942;-38
2022/06/11 03:32:41;;;;;;;19.63;16.60;;;;;;;33.35;54.59;100713.31;5058841;28;65365;-38
2022/06/11 03:35:13;;;;;;;21.10;18.07;;;;;;;33.36;54.68;100709.50;5045798;28;70000;-40
2022/06/11 03:37:43;;;;;;;19.33;17.17;;;;;;;33.36;54.57;100709.50;5051305;28;65093;-38
2022/06/11 03:40:14;;;;;;;24.83;18.17;;;;;;;33.35;54.83;100707.88;5047481;28;70632;-37
2022/06/11 03:42:45;;;;;;;22.58;17.70;;;;;;;33.37;54.95;100700.28;5053072;28;66506;-39
2022/06/11 03:45:16;;;;;;;22.58;18.38;;;;;;;33.40;54.55;100696.25;5046177;28;70245;-37
2022/06/11 03:47:47;;;;;;;19.20;17.33;;;;;;;33.33;54.78;100687.44;5050647;28;66624;-38
2022/06/11 03:50:23;;;;;;;21.83;18.03;;;;;;;33.42;54.77;100696.03;5047315;28;70080;-38
2022/06/11 03:52:54;;;;;;;23.40;17.30;;;;;;;33.45;54.68;100684.66;5048023;28;65692;-38
2022/06/11 03:55:25;;;;;;;;;;;;;;;33.10;55.54;100682.91;5049952;28;70459;-38
2022/06/11 03:57:57;;;;;;;18.48;16.58;;;;;;;33.45;54.45;100690.09;5050650;28;66631;-38
2022/06/11 04:03:20;;;;;;;18.63;16.63;;;;;;;33.49;54.44;100696.69;5048996;28;65893;-38
2022/06/11 04:05:52;;;;;;;20.83;17.13;;;;;;;33.13;54.88;100617.19;5046817;28;69787;-38
2022/06/11 04:08:24;;;;;;;21.25;17.45;;;;;;;33.55;54.45;100672.13;5053995;28;66304;-38
2022/06/11 04:10:56;;;;;;;;;;;;;;;33.25;55.27;100677.75;5045532;28;70201;-38
2022/06/11 04:13:29;;;;;;;17.83;15.98;;;;;;;33.52;54.62;100660.88;5047328;27;67196;-38
2022/06/11 04:16:01;;;;;;;18.95;17.08;;;;;;;33.62;54.53;100674.66;5048329;28;69883;-38
2022/06/11 04:18:39;;;;;;;18.80;16.73;;;;;;;33.64;54.46;100667.09;5025036;28;64937;-39
2022/06/11 04:21:12;;;;;;;20.40;17.30;;;;;;;33.34;54.43;100619.19;5050869;28;69163;-39
2022/06/11 04:23:47;;;;;;;20.00;16.42;;;;;;;33.68;54.36;100679.13;5038000;28;65694;-38
2022/06/11 04:26:22;;;;;;;18.95;16.17;;;;;;;33.31;54.19;100606.09;5051138;28;70671;-37
2022/06/11 04:28:55;;;;;;;18.88;16.48;;;;;;;33.72;54.29;100664.00;5051026;28;65742;-39
2022/06/11 04:31:27;;;;;;;20.13;16.70;;;;;;;33.74;54.16;100656.41;5018511;28;69251;-39
2022/06/11 04:33:58;;;;;;;18.55;16.55;;;;;;;33.74;54.43;100656.41;5053224;28;66176;-40
2022/06/11 04:36:33;;;;;;;20.05;16.55;;;;;;;33.76;54.26;100670.56;5048791;28;70273;-39
2022/06/11 04:39:07;;;;;;;19.85;16.55;;;;;;;33.80;54.00;100677.19;5049263;28;65421;-41
2022/06/11 04:41:38;;;;;;;18.42;16.55;;;;;;;33.81;54.44;100667.94;5054590;28;69706;-39
2022/06/11 04:44:08;;;;;;;18.75;16.92;;;;;;;33.81;54.27;100661.69;5052434;28;65695;-41
2022/06/11 04:46:40;;;;;;;18.90;16.67;;;;;;;33.83;54.26;100664.19;5054147;28;70214;-42
2022/06/11 04:49:11;;;;;;;17.33;15.73;;;;;;;33.85;54.51;100656.56;5053915;28;67176;-40
2022/06/11 04:51:43;;;;;;;18.20;16.42;;;;;;;33.84;54.68;100649.50;5047801;28;69169;-38
2022/06/11 04:54:14;;;;;;;;;;;;;;;33.53;55.09;100648.94;5044269;28;66438;-40
2022/06/11 04:56:45;;;;;;;19.83;15.88;;;;;;;33.86;54.02;100639.19;5056949;28;68969;-38
2022/06/11 04:59:16;;;;;;;17.55;15.75;;;;;;;33.87;54.48;100635.38;5065945;28;65403;-38
2022/06/11 05:01:47;;;;;;;17.30;15.60;;;;;;;33.89;54.33;100635.97;5057827;27;70713;-39
2022/06/11 05:04:18;;;;;;;19.67;15.60;;;;;;;33.92;54.00;100640.91;5059128;28;67482;-46
2022/06/11 05:06:53;;;;;;;21.45;15.35;;;;;;;33.95;54.14;100629.53;5061413;28;70662;-39
2022/06/11 05:09:26;;;;;;;16.13;14.60;;;;;;;33.57;54.19;100568.50;5054520;28;65998;-39
2022/06/11 05:11:59;;;;;;;17.77;15.38;;;;;;;33.97;54.33;100620.06;5057783;28;43164;-38
2022/06/11 05:14:30;;;;;;;16.42;14.93;;;;;;;33.98;54.36;100618.16;5064304;27;65761;-38
2022/06/11 05:17:01;;;;;;;15.05;13.60;;;;;;;34.01;54.30;100613.03;5064563;28;70250;-38
2022/06/11 05:19:32;;;;;;;15.18;13.88;;;;;;;34.03;54.16;100605.44;5055136;28;65359;-38
2022/06/11 05:22:03;;;;;;;15.75;14.38;;;;;;;34.07;54.04;100600.34;5056343;28;69302;-38
2022/06/11 05:24:34;;;;;;;15.77;14.13;;;;;;;34.07;53.90;100592.19;5046653;28;67049;-38
2022/06/11 05:27:12;;;;;;;15.02;13.52;;;;;;;34.12;53.86;100595.00;5052872;28;70351;-41
2022/06/11 05:29:48;;;;;;;14.65;13.30;;;;;;;34.17;53.56;100589.63;5049204;28;66420;-39
2022/06/11 05:32:24;;;;;;;14.57;13.23;;;;;;;33.89;53.47;100529.84;5047964;28;70231;-40
2022/06/11 05:34:56;;;;;;;15.73;14.15;;;;;;;34.16;53.96;100570.84;5048442;27;66426;-39
2022/06/11 05:37:28;;;;;;;15.73;12.52;;;;;;;34.20;54.00;100567.34;5046358;28;68885;-38
2022/06/11 05:39:58;;;;;;;20.83;13.88;;;;;;;34.15;53.82;100558.28;5049206;28;65349;-37
2022/06/11 05:42:29;;;;;;;13.30;12.07;;;;;;;34.29;53.72;100575.09;5048862;28;69268;-38
2022/06/11 05:45:00;;;;;;;13.48;12.15;;;;;;;34.22;53.60;100559.75;5045986;28;67005;-39
2022/06/11 05:47:31;;;;;;;13.80;12.38;;;;;;;34.27;53.66;100569.91;5051634;28;69966;-38
2022/06/11 05:50:03;;;;;;;14.40;13.00;;;;;;;34.08;53.86;100520.38;5053023;28;66321;-39
2022/06/11 05:52:39;;;;;;;20.67;13.38;;;;;;;33.25;56.40;100414.09;5051245;28;70173;-39
2022/06/11 05:55:11;;;;;;;24.40;13.50;;;;;;;33.87;55.66;100549.13;5055803;28;66730;-38
2022/06/11 05:57:42;;;;;;;;;;;;;;;33.24;55.27;100559.22;5051598;28;70560;-38
2022/06/11 06:00:16;;;;;;;18.30;11.90;;;;;;;33.27;53.67;100553.31;5042924;28;66282;-38
2022/06/11 06:02:47;;;;;;;13.48;12.35;;;;;;;33.07;53.12;100544.75;5046012;28;70136;-37
2022/06/11 06:05:23;;;;;;;12.68;11.70;;;;;;;32.92;52.12;100547.97;5046666;28;65747;-38
2022/06/11 06:07:54;;;;;;;11.85;10.68;;;;;;;32.80;51.69;100537.16;5050000;28;71396;-38
2022/06/11 06:10:26;;;;;;;10.40;9.70;;;;;;;32.61;50.98;100527.53;5050395;28;66456;-38
2022/06/11 06:12:56;;;;;;;10.63;9.83;;;;;;;32.59;50.34;100535.09;5045428;28;69821;-37
2022/06/11 06:15:32;;;;;;;10.13;9.38;;;;;;;32.47;49.58;100516.94;5049326;28;66389;-37
2022/06/11 06:18:03;;;;;;;9.90;9.13;;;;;;;32.42;48.94;100518.69;5046785;28;70589;-37
2022/06/11 06:20:33;;;;;;;9.05;8.35;;;;;;;32.33;48.88;100506.56;5046867;28;65798;-37
2022/06/11 06:23:04;;;;;;;8.80;8.23;;;;;;;32.30;48.19;100505.16;5046116;28;69924;-37
2022/06/11 06:25:35;;;;;;;8.83;8.03;;;;;;;32.25;47.92;100505.03;5049392;28;66202;-37
2022/06/11 06:28:07;;;;;;;7.63;7.03;;;;;;;32.23;47.34;100509.88;5042773;28;69305;-37
2022/06/11 06:30:38;;;;;;;7.82;7.32;;;;;;;32.17;46.79;100502.69;5048320;28;66583;-36
2022/06/11 06:33:09;;;;;;;7.50;6.90;;;;;;;32.16;46.54;100498.34;5047125;28;70455;-36
2022/06/11 06:35:40;;;;;;;7.50;6.80;;;;;;;32.12;46.50;100494.44;5046736;28;65590;-39
2022/06/11 06:38:12;;;;;;;5.93;5.53;;;;;;;32.06;46.29;100488.09;5044713;28;69561;-37
2022/06/11 06:40:43;;;;;;;6.50;5.90;;;;;;;32.09;45.33;100493.03;5040658;28;65715;-38
2022/06/11 06:43:19;;;;;;;6.22;5.78;;;;;;;32.13;45.56;100493.41;5041726;28;69999;-36
2022/06/11 06:45:49;;;;;;;;;;;;;;;31.86;45.46;100493.84;5044214;28;66078;-38
2022/06/11 06:48:20;;;;;;;5.38;5.00;;;;;;;32.05;44.92;100475.59;5045922;28;69412;-38
2022/06/11 06:50:52;;;;;;;5.65;5.35;;;;;;;32.10;44.59;100483.03;5046757;28;66879;-37
2022/06/11 06:53:24;;;;;;;7.28;5.53;;;;;;;32.13;44.51;100483.38;5047993;28;69913;-38
2022/06/11 06:55:55;;;;;;;5.43;5.03;;;;;;;32.08;44.02;100477.00;5044345;28;65346;-38
2022/06/11 06:58:26;;;;;;;;;;;;;;;31.90;44.13;100480.63;5045486;28;70161;-37
2022/06/11 07:00:57;;;;;;;5.50;5.10;;;;;;;32.16;44.00;100469.31;5048435;28;66073;-37
2022/06/11 07:03:28;;;;;;;4.72;4.43;;;;;;;32.20;43.40;100480.50;5051829;28;70210;-38
2022/06/11 07:06:03;;;;;;;4.50;4.20;;;;;;;31.95;43.41;100421.91;5042446;28;66090;-37
2022/06/11 07:08:33;;;;;;;4.50;4.20;;;;;;;32.22;43.12;100475.69;5048093;28;69501;-37
2022/06/11 07:11:04;;;;;;;5.27;4.77;;;;;;;32.15;43.66;100458.69;5046437;28;65950;-42
2022/06/11 07:13:36;;;;;;;4.97;4.57;;;;;;;32.14;43.40;100451.63;5027208;28;69308;-42
2022/06/11 07:16:15;;;;;;;4.90;4.55;;;;;;;32.24;42.86;100454.56;5041127;28;66414;-42
2022/06/11 07:18:51;;;;;;;6.35;3.95;;;;;;;32.24;42.91;100446.41;5046586;28;69991;-45
2022/06/11 07:21:36;;;;;;;4.25;3.95;;;;;;;32.10;42.54;100439.63;5056307;28;66058;-43
2022/06/11 07:24:14;;;;;;;4.40;3.95;;;;;;;32.18;42.37;100436.50;5046081;28;70316;-41
2022/06/11 07:26:50;;;;;;;3.88;3.67;;;;;;;32.19;42.10;100439.00;5048759;28;65813;-41
2022/06/11 07:29:31;;;;;;;3.60;3.40;;;;;;;32.14;41.88;100430.72;5057136;28;70277;-41
2022/06/11 07:32:08;;;;;;;3.63;3.42;;;;;;;32.13;41.89;100428.28;5059196;28;66171;-41
2022/06/11 07:34:40;;;;;;;4.05;3.75;;;;;;;32.11;41.58;100422.25;5052636;28;69728;-41
2022/06/11 07:37:12;;;;;;;3.72;3.53;;;;;;;32.13;41.24;100420.13;5050826;28;65108;-42
2022/06/11 07:39:43;;;;;;;3.45;3.25;;;;;;;32.02;41.34;100406.34;5055409;27;70671;-42
2022/06/11 07:42:14;;;;;;;;;;;;;;;31.79;41.45;100417.22;5057595;28;66121;-43
2022/06/11 07:44:45;;;;;;;3.78;3.53;;;;;;;32.02;41.38;100414.50;5050047;28;69767;-41
2022/06/11 07:47:53;;;;;;;3.22;3.03;;;;;;;32.03;41.21;100408.00;5044214;28;65532;-41
2022/06/11 07:50:07;;;;;;;3.60;3.30;;;;;;;31.99;40.93;100401.41;5049961;28;70668;-40
2022/06/11 07:52:38;;;;;;;;;;;;;;;31.76;41.21;100401.41;5036436;28;66299;-40
2022/06/11 07:55:10;;;;;;;3.30;3.10;;;;;;;32.00;40.99;100400.34;5042031;28;69713;-44
2022/06/11 07:57:41;;;;;;;3.13;2.92;;;;;;;32.00;40.48;100397.63;5046010;28;65463;-42
2022/06/11 08:00:16;;;;;;;2.72;2.47;;;;;;;32.15;41.03;100399.00;5045960;28;69604;-44
2022/06/11 08:02:47;;;;;;;6.00;4.05;;;;;;;32.43;45.53;100384.59;5045603;28;65647;-44
2022/06/11 08:05:18;;;;;;;5.97;4.77;;;;;;;32.46;52.53;100384.19;5046678;28;69894;-43
2022/06/11 08:07:51;;;;;;;5.93;5.30;;;;;;;32.54;54.06;100385.66;5048949;28;66054;-43
2022/06/11 08:10:24;;;;;;;6.28;5.55;;;;;;;32.21;53.46;100319.34;5058512;28;69961;-43
2022/06/11 08:12:55;;;;;;;5.60;4.97;;;;;;;32.67;54.13;100379.94;5054193;27;65207;-44
2022/06/11 08:15:26;;;;;;;5.50;5.10;;;;;;;32.60;53.60;100362.97;5050685;28;69979;-43
2022/06/11 08:17:57;;;;;;;6.82;4.93;;;;;;;32.69;54.57;100383.22;5055780;27;65749;-44
2022/06/11 08:20:31;;;;;;;5.43;4.93;;;;;;;32.75;55.26;100382.25;5057508;28;70129;-44
2022/06/11 08:23:03;;;;;;;6.13;4.95;;;;;;;32.79;54.78;100374.41;5048466;28;65704;-42
2022/06/11 08:25:35;;;;;;;12.65;4.00;;;;;;;32.75;53.47;100365.94;5046046;28;69899;-44
2022/06/11 08:28:07;;;;;;;7.03;4.43;;;;;;;32.91;55.54;100377.91;5053636;28;65232;-42
2022/06/11 08:30:39;;;;;;;4.65;4.25;;;;;;;33.09;56.47;100382.28;5061191;28;70074;-43
2022/06/11 08:33:11;;;;;;;7.50;5.13;;;;;;;33.28;56.17;100394.56;5042666;28;64669;-43
2022/06/11 08:35:43;;;;;;;5.05;4.60;;;;;;;33.42;55.85;100391.50;5053827;28;69394;-48
2022/06/11 08:38:14;;;;;;;4.80;4.43;;;;;;;33.53;56.21;100385.97;5062689;28;66053;-44
2022/06/11 08:40:49;;;;;;;5.38;4.32;;;;;;;33.66;56.32;100392.97;5048092;28;69001;-44
2022/06/11 08:43:30;;;;;;;5.25;4.80;;;;;;;33.74;56.22;100394.41;5058095;28;66440;-44
2022/06/11 08:46:13;;;;;;;6.05;4.28;;;;;;;33.10;55.87;100272.53;5056245;28;70214;-44
2022/06/11 08:49:05;;;;;;;5.47;4.50;;;;;;;33.89;55.70;100389.19;5046157;28;65739;-46
2022/06/11 08:52:04;;;;;;;5.68;5.07;;;;;;;33.87;55.37;100387.78;5051371;28;70497;-43
2022/06/11 08:54:43;;;;;;;5.78;5.13;;;;;;;34.01;55.28;100378.16;5047675;28;66270;-43
2022/06/11 08:57:28;;;;;;;15.45;5.93;;;;;;;34.12;55.24;100393.56;5059450;28;69434;-43
2022/06/11 09:00:05;;;;;;;6.65;5.18;;;;;;;34.17;55.50;100377.31;5040436;28;65349;-43
2022/06/11 09:02:48;;;;;;;5.32;4.90;;;;;;;34.17;55.89;100374.59;5046984;28;69355;-43
2022/06/11 09:05:33;;;;;;;6.30;5.45;;;;;;;34.20;55.53;100371.34;5051662;28;64936;-43
2022/06/11 09:08:21;;;;;;;6.72;5.10;;;;;;;34.20;55.47;100371.34;5053069;28;69982;-43
2022/06/11 09:11:27;;;;;;;9.93;4.10;;;;;;;34.19;55.68;100369.72;5045155;28;65831;-43
2022/06/11 09:14:03;;;;;;;5.05;4.55;;;;;;;34.31;55.42;100385.09;5048770;28;70284;-43
2022/06/11 09:16:41;;;;;;;8.15;3.95;;;;;;;34.33;55.59;100385.66;5051142;28;66451;-43
2022/06/11 09:19:28;;;;;;;5.47;4.15;;;;;;;34.35;55.50;100375.31;5051771;28;69455;-44
2022/06/11 09:22:29;;;;;;;7.30;4.00;;;;;;;34.38;55.44;100372.94;5053547;28;65730;-43
2022/06/11 09:25:17;;;;;;;5.73;4.07;;;;;;;34.39;55.67;100384.63;5048264;28;70139;-44
2022/06/11 09:28:08;;;;;;;4.65;4.10;;;;;;;34.38;56.53;100389.25;5043073;28;66095;-43
2022/06/11 09:30:47;;;;;;;6.57;4.07;;;;;;;34.25;56.83;100346.09;5048275;28;69402;-44
2022/06/11 09:33:45;;;;;;;4.65;3.60;;;;;;;34.40;57.08;100386.25;5048245;28;66592;-44
2022/06/11 09:36:25;;;;;;;9.02;4.00;;;;;;;34.11;56.76;100342.94;5049398;28;70253;-43
2022/06/11 09:39:09;;;;;;;9.32;4.00;;;;;;;34.52;58.09;100416.06;5050335;28;66776;-44
2022/06/11 09:41:51;;;;;;;4.45;3.60;;;;;;;34.52;58.37;100411.47;5047599;28;70055;-44
2022/06/11 09:44:22;;;;;;;6.32;4.57;;;;;;;34.52;59.40;100414.19;5044077;28;66339;-44
2022/06/11 09:47:03;;;;;;;5.70;3.80;;;;;;;34.56;59.03;100407.16;5048412;28;70808;-44
2022/06/11 09:50:15;;;;;;;6.05;3.88;;;;;;;34.44;59.86;100410.00;5050043;28;66497;-44
2022/06/11 09:53:00;;;;;;;5.53;3.50;;;;;;;34.58;59.37;100415.91;5054562;28;69709;-44
2022/06/11 09:55:49;;;;;;;9.85;4.00;;;;;;;34.60;59.03;100408.31;5048900;28;66402;-44
2022/06/11 09:58:23;;;;;;;5.45;4.10;;;;;;;34.57;59.78;100414.25;5047994;28;69452;-44
2022/06/11 10:01:17;;;;;;;4.53;3.47;;;;;;;34.51;59.88;100425.31;5056366;28;65315;-43
2022/06/11 10:04:11;;;;;;;7.03;3.65;;;;;;;34.22;60.02;100385.53;5055447;28;69391;-44
2022/06/11 10:06:57;;;;;;;3.67;3.38;;;;;;;34.51;59.37;100437.03;5051541;27;66636;-43
2022/06/11 10:09:46;;;;;;;6.43;3.25;;;;;;;34.36;59.30;100401.47;5049262;28;69827;-44
2022/06/11 10:12:23;;;;;;;5.10;3.05;;;;;;;34.56;59.30;100428.97;5044142;28;65957;-44
2022/06/11 10:15:19;;;;;;;10.30;3.70;;;;;;;33.81;59.56;100322.44;5052656;28;69760;-44
2022/06/11 10:18:11;;;;;;;6.18;3.35;;;;;;;34.54;59.57;100458.31;5034754;28;66047;-44
2022/06/11 10:20:50;;;;;;;4.70;3.05;;;;;;;34.23;59.79;100402.69;5044844;28;69985;-44
2022/06/11 10:23:40;;;;;;;7.15;3.20;;;;;;;34.57;59.23;100449.66;5052905;28;66356;-44
2022/06/11 10:26:18;;;;;;;3.85;3.35;;;;;;;34.12;58.69;100358.19;5051598;28;68931;-44
2022/06/11 10:29:13;;;;;;;4.88;2.60;;;;;;;34.53;59.31;100456.69;5046874;28;66632;-44
2022/06/11 10:31:53;;;;;;;2.85;2.55;;;;;;;34.50;58.67;100462.63;5055264;28;70252;-44
2022/06/11 10:34:26;;;;;;;5.28;3.25;;;;;;;34.20;59.39;100398.56;5051190;28;66673;-43
2022/06/11 10:37:22;;;;;;;3.00;2.70;;;;;;;34.57;59.16;100440.66;5051782;28;70345;-44
2022/06/11 10:40:11;;;;;;;6.07;3.00;;;;;;;34.17;58.72;100377.31;5045914;28;65744;-45
2022/06/11 10:42:52;;;;;;;6.25;3.22;;;;;;;34.19;58.28;100402.38;5052616;28;69979;-45
2022/06/11 10:45:23;;;;;;;4.32;2.95;;;;;;;34.65;58.15;100481.88;5050754;28;66159;-44
2022/06/11 10:47:56;;;;;;;6.60;2.97;;;;;;;34.43;58.18;100418.44;5047692;28;69367;-49
2022/06/11 10:50:34;;;;;;;3.80;3.10;;;;;;;34.85;57.66;100470.41;5048905;28;65637;-43
2022/06/11 10:53:10;;;;;;;3.17;2.75;;;;;;;34.99;56.92;100489.03;5042702;28;70397;-43
2022/06/11 10:55:55;;;;;;;3.75;3.10;;;;;;;35.02;56.45;100497.53;5043503;28;66084;-43
2022/06/11 10:58:52;;;;;;;5.63;3.33;;;;;;;34.84;56.61;100440.69;5044411;28;69868;-43
2022/06/11 11:01:42;;;;;;;7.25;3.17;;;;;;;35.07;56.65;100478.53;5045299;28;66161;-45
2022/06/11 11:05:00;;;;;;;4.68;3.58;;;;;;;35.02;56.63;100508.44;5046381;28;70346;-45
2022/06/11 11:07:56;;;;;;;4.78;3.65;;;;;;;35.12;55.90;100507.75;5059064;28;66449;-44
2022/06/11 11:10:35;;;;;;;7.45;4.00;;;;;;;35.21;56.17;100498.00;5042710;28;69280;-46
2022/06/11 11:13:21;;;;;;;11.05;4.05;;;;;;;34.42;56.20;100392.28;5047287;28;66312;-46
2022/06/11 11:16:19;;;;;;;9.57;4.32;;;;;;;34.55;55.40;100426.44;5045667;28;70253;-43
2022/06/11 11:19:04;;;;;;;5.57;4.20;;;;;;;35.20;55.66;100542.72;5054881;28;65277;-43
2022/06/11 11:22:07;;;;;;;11.98;4.75;;;;;;;35.14;56.18;100544.56;5049527;28;69673;-44
2022/06/11 11:24:45;;;;;;;5.95;4.32;;;;;;;35.17;56.12;100531.50;5047933;27;65631;-43
2022/06/11 11:27:23;;;;;;;12.10;5.20;;;;;;;34.50;56.01;100464.53;5049788;28;69412;-43
2022/06/11 11:30:00;;;;;;;5.70;5.07;;;;;;;34.76;56.61;100531.88;5044783;28;66596;-43
2022/06/11 11:32:39;;;;;;;11.10;5.65;;;;;;;34.61;57.02;100532.53;5044819;28;69074;-42
2022/06/11 11:35:28;;;;;;;9.35;5.65;;;;;;;34.02;57.96;100464.19;5043766;28;66698;-43
2022/06/11 11:38:03;;;;;;;8.05;5.82;;;;;;;34.38;58.80;100533.56;5050358;28;70476;-41
2022/06/11 11:40:47;;;;;;;10.35;5.88;;;;;;;33.88;59.36;100465.59;5051698;28;66680;-40
2022/06/11 11:43:18;;;;;;;10.80;5.90;;;;;;;34.07;59.70;100518.72;5053767;28;69918;-44
2022/06/11 11:46:00;;;;;;;6.82;5.70;;;;;;;33.69;59.23;100484.94;5044358;28;65145;-43
2022/06/11 11:48:56;;;;;;;14.65;5.93;;;;;;;34.06;59.29;100544.28;5053706;28;70271;-42
2022/06/11 11:51:40;;;;;;;12.25;5.60;;;;;;;33.96;60.23;100539.50;5043169;28;66112;-44
2022/06/11 11:54:24;;;;;;;7.93;5.47;;;;;;;33.98;60.45;100541.97;5045347;28;69358;-43
2022/06/11 11:57:02;;;;;;;9.45;5.18;;;;;;;33.98;60.06;100547.41;5047825;28;65693;-44
2022/06/11 11:59:56;;;;;;;5.25;4.85;;;;;;;33.72;56.15;100555.19;5042892;28;70055;-45
2022/06/11 12:02:48;;;;;;;4.70;4.28;;;;;;;33.34;54.19;100537.63;5049709;28;65439;-43
2022/06/11 12:05:23;;;;;;;7.65;5.55;;;;;;;33.29;51.72;100572.91;5045151;28;69286;-42
2022/06/11 12:07:56;;;;;;;5.03;4.03;;;;;;;33.20;50.41;100577.06;5046992;28;65608;-42
2022/06/11 12:10:37;;;;;;;5.13;4.32;;;;;;;33.03;48.52;100578.94;5046755;28;70432;-43